Time;durP1;ratioP1;P1;durP2;ratioP2;P2;SDS_P1;SDS_P2;PMS_P1;PMS_P2;Temp;Humidity;BMP_temperature;BMP_pressure;BME280_temperature;BME280_humidity;BME280_pressure;Samples;Min_cycle;Max_cycle;Signal;HPM_P1;HPM_P2
2023/07/14 00:01:33;;;;;;;0.85;0.70;;;;;;;17.10;74.38;100371.38;5004602;28;20107;-45
2023/07/14 00:04:01;;;;;;;4.28;1.17;;;;;;;17.07;74.61;100358.19;5013030;28;20054;-46
2023/07/14 00:06:28;;;;;;;4.53;1.00;;;;;;;17.08;74.29;100366.19;5010255;28;20590;-46
2023/07/14 00:08:55;;;;;;;2.80;0.70;;;;;;;17.08;74.41;100366.19;5010269;28;20092;-46
2023/07/14 00:11:24;;;;;;;2.58;1.52;;;;;;;17.10;74.61;100366.59;5011465;28;20467;-49
2023/07/14 00:13:53;;;;;;;3.13;0.90;;;;;;;17.11;74.60;100365.38;4994858;28;20058;-46
2023/07/14 00:16:28;;;;;;;2.75;0.70;;;;;;;17.11;74.52;100364.59;5012914;28;20062;-45
2023/07/14 00:18:55;;;;;;;1.40;0.82;;;;;;;17.10;74.43;100368.59;5012472;28;20049;-45
2023/07/14 00:21:24;;;;;;;5.05;1.05;;;;;;;17.08;74.41;100366.19;5012805;28;20045;-47
2023/07/14 00:23:59;;;;;;;1.02;0.73;;;;;;;17.07;74.42;100359.00;5012696;28;20431;-46
2023/07/14 00:26:28;;;;;;;3.28;0.70;;;;;;;17.08;74.32;100348.63;5012824;28;20038;-46
2023/07/14 00:28:55;;;;;;;3.25;0.90;;;;;;;17.09;74.31;100359.41;4994173;28;20096;-47
2023/07/14 00:31:23;;;;;;;3.40;0.98;;;;;;;17.05;74.31;100358.56;5011619;28;20069;-46
2023/07/14 00:33:53;;;;;;;1.98;0.80;;;;;;;16.99;74.38;100358.19;5012351;28;20498;-46
2023/07/14 00:36:22;;;;;;;2.35;0.80;;;;;;;16.99;74.39;100351.81;5012347;28;20046;-45
2023/07/14 00:38:49;;;;;;;2.80;0.90;;;;;;;16.99;74.44;100351.81;5012309;28;20038;-45
2023/07/14 00:41:23;;;;;;;3.75;0.70;;;;;;;16.98;74.46;100352.97;5006891;28;20097;-47
2023/07/14 00:43:51;;;;;;;4.05;1.05;;;;;;;16.96;74.32;100352.59;5012174;28;20128;-46
2023/07/14 00:46:28;;;;;;;2.15;1.10;;;;;;;16.92;74.47;100346.97;5012288;28;20096;-46
2023/07/14 00:49:00;;;;;;;1.63;1.13;;;;;;;16.92;74.18;100340.59;5006919;28;20046;-49
2023/07/14 00:51:40;;;;;;;3.42;1.00;;;;;;;16.92;74.38;100346.19;5009561;28;20053;-47
2023/07/14 00:54:25;;;;;;;4.18;0.80;;;;;;;16.88;74.25;100340.59;5012027;28;20132;-46
2023/07/14 00:56:53;;;;;;;3.70;1.63;;;;;;;16.84;74.08;100339.78;5011966;28;20436;-48
2023/07/14 00:59:21;;;;;;;3.97;0.82;;;;;;;16.84;74.27;100333.38;5010980;28;20050;-46
2023/07/14 01:02:10;;;;;;;2.97;1.02;;;;;;;16.84;74.12;100327.78;4952682;28;1216924;-45
2023/07/14 01:04:43;;;;;;;3.63;0.80;;;;;;;16.83;74.06;100326.22;5019112;28;20107;-46
2023/07/14 01:07:12;;;;;;;1.10;0.63;;;;;;;16.80;74.18;100322.22;5012988;28;20054;-46
2023/07/14 01:09:40;;;;;;;2.92;1.25;;;;;;;16.79;74.31;100322.59;5012442;28;20048;-46
2023/07/14 01:12:12;;;;;;;4.32;0.70;;;;;;;16.79;74.26;100311.41;4996076;28;20054;-46
2023/07/14 01:14:42;;;;;;;5.00;1.00;;;;;;;16.77;74.19;100309.03;4995996;28;20092;-45
2023/07/14 01:17:10;;;;;;;3.42;0.70;;;;;;;16.76;74.18;100309.44;5012723;28;20042;-45
2023/07/14 01:19:50;;;;;;;2.05;0.70;;;;;;;16.78;74.26;100307.03;5012143;28;20100;-46
2023/07/14 01:22:22;;;;;;;2.75;1.00;;;;;;;16.78;74.34;100315.41;5012638;28;20046;-46
2023/07/14 01:24:59;;;;;;;2.63;1.00;;;;;;;16.78;74.43;100301.44;5012937;28;20068;-47
2023/07/14 01:27:26;;;;;;;1.52;0.85;;;;;;;16.79;74.44;100303.03;5012270;28;20054;-46
2023/07/14 01:29:54;;;;;;;0.93;0.70;;;;;;;16.77;74.63;100295.03;5011582;28;20046;-46
2023/07/14 01:32:23;;;;;;;4.00;0.80;;;;;;;16.75;74.64;100291.06;4999884;28;20050;-48
2023/07/14 01:34:50;;;;;;;7.20;0.80;;;;;;;16.78;74.83;100284.66;5012339;28;20045;-46
2023/07/14 01:37:20;;;;;;;3.35;0.80;;;;;;;16.78;74.51;100279.06;5012515;28;20455;-46
2023/07/14 01:39:50;;;;;;;2.40;0.95;;;;;;;16.77;74.64;100274.69;5012018;28;20100;-46
2023/07/14 01:42:18;;;;;;;9.43;1.83;;;;;;;16.75;74.59;100277.88;5012314;28;20045;-46
2023/07/14 01:44:48;;;;;;;1.77;0.77;;;;;;;16.75;74.65;100275.09;5011840;28;20112;-49
2023/07/14 01:47:16;;;;;;;7.55;0.70;;;;;;;16.75;74.55;100275.09;5010910;28;20153;-49
2023/07/14 01:49:49;;;;;;;3.13;1.10;;;;;;;16.72;74.43;100269.47;5009629;28;20075;-47
2023/07/14 01:52:22;;;;;;;3.33;1.08;;;;;;;16.68;74.40;100263.88;5012248;28;20093;-46
2023/07/14 01:54:53;;;;;;;3.47;0.80;;;;;;;16.61;74.46;100260.28;5012013;28;20054;-46
2023/07/14 01:57:24;;;;;;;2.53;0.90;;;;;;;16.57;74.63;100262.28;4994558;28;20038;-46
2023/07/14 01:59:57;;;;;;;3.20;1.17;;;;;;;16.56;74.63;100266.25;4994194;28;20042;-46
2023/07/14 02:02:28;;;;;;;2.15;0.98;;;;;;;16.52;74.58;100243.09;5003987;28;20068;-46
2023/07/14 02:04:55;;;;;;;2.70;1.00;;;;;;;16.53;74.50;100256.69;5011438;28;20088;-46
2023/07/14 02:07:22;;;;;;;3.45;0.90;;;;;;;16.52;74.52;100243.09;5011982;28;20046;-47
2023/07/14 02:09:49;;;;;;;3.47;1.40;;;;;;;16.47;74.55;100240.69;5011629;28;20048;-45
2023/07/14 02:12:25;;;;;;;5.30;1.35;;;;;;;16.47;74.56;100243.47;5009287;28;20049;-47
2023/07/14 02:15:10;;;;;;;3.65;1.02;;;;;;;16.45;74.58;100232.69;5011390;28;20141;-46
2023/07/14 02:17:37;;;;;;;3.03;0.80;;;;;;;16.43;74.42;100224.72;5010994;28;20052;-46
2023/07/14 02:20:10;;;;;;;2.20;0.80;;;;;;;16.41;74.71;100220.72;5010665;28;20058;-46
2023/07/14 02:22:38;;;;;;;3.80;1.42;;;;;;;16.37;74.79;100212.31;5011537;28;20052;-46
2023/07/14 02:25:10;;;;;;;2.45;0.70;;;;;;;16.36;74.96;100218.31;5011703;28;20045;-46
2023/07/14 02:27:36;;;;;;;3.53;0.90;;;;;;;16.33;75.00;100219.91;5009810;28;20081;-46
2023/07/14 02:30:13;;;;;;;2.90;0.80;;;;;;;16.31;75.02;100215.91;5011649;28;20038;-46
2023/07/14 02:32:45;;;;;;;2.15;0.90;;;;;;;16.25;75.11;100214.72;4982357;28;20050;-48
2023/07/14 02:35:19;;;;;;;6.47;2.05;;;;;;;16.21;75.09;100211.91;5011122;28;20385;-46
2023/07/14 02:38:03;;;;;;;6.20;0.90;;;;;;;16.20;75.04;100204.69;5011598;28;20057;-46
2023/07/14 02:40:43;;;;;;;4.57;1.15;;;;;;;16.17;75.01;100188.75;5010530;28;20046;-46
2023/07/14 02:43:13;;;;;;;2.17;1.13;;;;;;;16.17;74.94;100187.94;5011396;28;20125;-45
2023/07/14 02:46:02;;;;;;;2.42;0.82;;;;;;;16.17;75.07;100174.78;5011366;28;20048;-48
2023/07/14 02:48:32;;;;;;;4.32;0.80;;;;;;;16.18;75.09;100173.59;5011034;28;20046;-47
2023/07/14 02:50:59;;;;;;;2.63;1.45;;;;;;;16.17;75.07;100171.19;4993665;28;20519;-45
2023/07/14 02:53:26;;;;;;;0.75;0.60;;;;;;;16.14;75.27;100170.00;5011117;28;20492;-46
2023/07/14 02:55:54;;;;;;;5.28;1.25;;;;;;;16.12;75.39;100171.59;5011041;28;20124;-45
2023/07/14 02:58:21;;;;;;;2.38;0.95;;;;;;;16.11;75.37;100167.19;4993652;28;20042;-48
2023/07/14 03:00:48;;;;;;;2.88;0.95;;;;;;;16.10;75.48;100166.38;5037448;23;20055;-46
2023/07/14 03:03:15;;;;;;;2.97;1.00;;;;;;;16.09;75.59;100150.84;4990045;28;20046;-46
2023/07/14 03:05:43;;;;;;;4.80;1.45;;;;;;;16.08;75.71;100148.44;4990347;28;20073;-46
2023/07/14 03:08:15;;;;;;;1.38;0.77;;;;;;;16.07;75.82;100144.06;4990678;28;20053;-46
2023/07/14 03:10:43;;;;;;;;;;;;;;;16.02;75.83;100147.25;4990781;28;20093;-45
2023/07/14 03:13:11;;;;;;;2.65;0.85;;;;;;;16.02;75.79;100142.44;4984877;28;19932;-45
2023/07/14 03:15:37;;;;;;;3.30;1.35;;;;;;;15.99;75.93;100139.66;4990605;28;20042;-47
2023/07/14 03:18:04;;;;;;;1.85;0.93;;;;;;;15.94;76.01;100135.25;4969822;28;20097;-45
2023/07/14 03:20:31;;;;;;;3.72;1.00;;;;;;;15.89;76.26;100138.41;4990233;28;20404;-46
2023/07/14 03:22:58;;;;;;;1.85;1.10;;;;;;;15.83;76.33;100134.44;4991152;28;20073;-48
2023/07/14 03:25:26;;;;;;;2.38;0.85;;;;;;;15.80;76.36;100135.22;4988407;28;20054;-46
2023/07/14 03:27:53;;;;;;;4.90;0.98;;;;;;;15.74;76.49;100134.81;4989888;28;20057;-45
2023/07/14 03:30:20;;;;;;;4.68;1.00;;;;;;;15.69;76.48;100117.66;4988347;28;20043;-46
2023/07/14 03:32:46;;;;;;;3.38;1.25;;;;;;;15.65;76.60;100114.03;4990070;28;20046;-48
2023/07/14 03:35:13;;;;;;;3.63;0.70;;;;;;;15.65;76.70;100105.66;4991135;28;20523;-46
2023/07/14 03:37:41;;;;;;;3.38;1.75;;;;;;;15.64;76.66;100093.72;4990063;28;20042;-46
2023/07/14 03:40:08;;;;;;;4.05;1.30;;;;;;;15.66;76.75;100093.31;4989195;28;20058;-50
2023/07/14 03:42:38;;;;;;;2.97;1.10;;;;;;;15.66;76.99;100101.69;4992012;28;20531;-46
2023/07/14 03:45:06;;;;;;;7.18;1.55;;;;;;;15.64;76.93;100087.34;4992930;28;20046;-46
2023/07/14 03:47:33;;;;;;;4.20;1.17;;;;;;;15.61;77.05;100085.34;4993235;28;20046;-46
2023/07/14 03:50:00;;;;;;;3.13;0.82;;;;;;;15.60;77.35;100086.53;4993163;28;20109;-45
2023/07/14 03:52:26;;;;;;;1.35;1.08;;;;;;;15.62;77.36;100089.75;4993063;28;20132;-46
2023/07/14 03:54:53;;;;;;;3.63;1.33;;;;;;;15.63;77.45;100085.72;4994515;28;20042;-46
2023/07/14 03:57:20;;;;;;;4.63;1.90;;;;;;;15.62;77.68;100084.16;4993933;28;20042;-46
2023/07/14 03:59:47;;;;;;;5.47;1.38;;;;;;;15.60;77.79;100080.94;4975785;28;20069;-47
2023/07/14 04:02:14;;;;;;;2.45;1.15;;;;;;;15.61;78.09;100076.97;5009442;28;20065;-46
2023/07/14 04:04:40;;;;;;;5.60;2.10;;;;;;;15.64;78.35;100076.19;5014090;28;20052;-46
2023/07/14 04:07:07;;;;;;;4.80;1.35;;;;;;;15.66;78.60;100071.00;5012853;28;20046;-46
2023/07/14 04:09:34;;;;;;;2.67;1.15;;;;;;;15.69;78.74;100061.84;5011361;28;20042;-46
2023/07/14 04:12:01;;;;;;;4.88;1.50;;;;;;;15.71;78.84;100059.44;5009413;28;20847;-46
2023/07/14 04:14:28;;;;;;;4.80;1.42;;;;;;;15.74;79.14;100053.06;5014796;28;20558;-46
2023/07/14 04:16:54;;;;;;;6.53;1.50;;;;;;;15.74;79.16;100042.72;5011409;28;20038;-46
2023/07/14 04:19:21;;;;;;;4.90;1.40;;;;;;;15.74;79.39;100042.72;5001198;28;20061;-47
2023/07/14 04:21:49;;;;;;;8.82;1.25;;;;;;;15.73;79.41;100034.72;5012538;28;20128;-46
2023/07/14 04:24:16;;;;;;;7.03;2.00;;;;;;;15.73;79.79;100034.72;5012195;28;20060;-46
2023/07/14 04:26:43;;;;;;;6.50;1.65;;;;;;;15.69;79.93;100028.34;5011905;28;20038;-48
2023/07/14 04:29:11;;;;;;;5.03;1.48;;;;;;;15.66;80.09;100024.38;5013151;28;20575;-47
2023/07/14 04:31:38;;;;;;;4.35;1.52;;;;;;;15.65;80.35;100016.38;5010102;28;20042;-46
2023/07/14 04:34:05;;;;;;;4.15;1.73;;;;;;;15.62;80.43;100017.19;5011849;28;20052;-47
2023/07/14 04:36:32;;;;;;;5.07;1.77;;;;;;;15.61;80.65;100010.00;5012250;28;20050;-46
2023/07/14 04:39:04;;;;;;;8.75;1.80;;;;;;;15.60;80.96;100006.41;5010099;28;20100;-46
2023/07/14 04:41:32;;;;;;;4.18;1.40;;;;;;;15.60;81.02;99998.03;5012123;28;20096;-45
2023/07/14 04:44:06;;;;;;;8.23;2.50;;;;;;;15.61;81.48;99998.84;5012121;28;20414;-46
2023/07/14 04:46:33;;;;;;;5.13;1.60;;;;;;;15.60;81.57;99997.22;5008195;28;20077;-46
2023/07/14 04:49:00;;;;;;;6.35;2.58;;;;;;;15.58;81.88;99994.84;5011720;28;20571;-45
2023/07/14 04:51:26;;;;;;;5.82;1.75;;;;;;;15.55;82.09;99990.06;4994044;28;20117;-46
2023/07/14 04:53:53;;;;;;;8.45;2.35;;;;;;;15.51;82.54;99977.31;5011498;28;20054;-46
2023/07/14 04:56:21;;;;;;;5.88;1.85;;;;;;;15.50;82.73;99981.28;5012195;28;20438;-47
2023/07/14 04:58:48;;;;;;;9.55;2.13;;;;;;;15.49;82.77;99979.72;5011174;28;20038;-46
2023/07/14 05:01:15;;;;;;;9.18;2.40;;;;;;;15.49;82.89;99980.47;5009846;28;20495;-46
2023/07/14 05:03:43;;;;;;;17.63;2.83;;;;;;;15.51;83.11;99985.69;5012280;28;20426;-46
2023/07/14 05:06:12;;;;;;;9.98;1.80;;;;;;;15.53;83.21;99972.13;5011443;28;20038;-49
2023/07/14 05:08:39;;;;;;;6.53;1.65;;;;;;;15.53;83.44;99963.75;5010330;28;20460;-47
2023/07/14 05:11:06;;;;;;;8.10;1.92;;;;;;;15.53;83.67;99952.59;5010547;28;20048;-48
2023/07/14 05:13:33;;;;;;;4.22;1.88;;;;;;;15.53;83.82;99952.59;5016535;28;20049;-47
2023/07/14 05:16:00;;;;;;;4.40;1.90;;;;;;;15.53;83.67;99950.59;5010583;28;20376;-46
2023/07/14 05:18:27;;;;;;;8.02;1.85;;;;;;;15.53;84.02;99941.44;5006302;28;20041;-47
2023/07/14 05:21:01;;;;;;;5.75;1.58;;;;;;;15.55;84.25;99939.03;5011940;28;20129;-46
2023/07/14 05:23:28;;;;;;;5.63;1.60;;;;;;;15.57;84.25;99942.22;5010369;28;20442;-46
2023/07/14 05:25:55;;;;;;;7.05;1.85;;;;;;;15.60;84.41;99941.44;5012103;28;20056;-45
2023/07/14 05:28:22;;;;;;;9.50;2.08;;;;;;;15.60;84.75;99931.06;5011331;28;20046;-46
2023/07/14 05:30:51;;;;;;;7.32;2.20;;;;;;;15.63;85.06;99929.47;5011244;28;20088;-46
2023/07/14 05:33:19;;;;;;;8.40;2.30;;;;;;;15.65;85.36;99922.31;5010959;28;20061;-47
2023/07/14 05:35:47;;;;;;;9.82;3.83;;;;;;;15.67;85.46;99916.34;5008768;28;20049;-46
2023/07/14 05:38:14;;;;;;;7.35;3.38;;;;;;;15.66;85.65;99923.09;5011918;28;20062;-47
2023/07/14 05:40:49;;;;;;;6.35;2.13;;;;;;;15.62;85.88;99920.31;5010758;28;20436;-45
2023/07/14 05:43:25;;;;;;;7.93;2.95;;;;;;;15.60;86.20;99905.16;5007198;28;20058;-49
2023/07/14 05:45:52;;;;;;;11.48;2.40;;;;;;;15.62;86.40;99900.00;5011987;28;20057;-50
2023/07/14 05:48:19;;;;;;;13.73;3.03;;;;;;;15.61;86.63;99901.19;5009907;28;20042;-46
2023/07/14 05:50:48;;;;;;;6.13;2.08;;;;;;;15.65;86.93;99890.81;5009814;28;20050;-45
2023/07/14 05:53:17;;;;;;;7.45;2.20;;;;;;;15.67;87.22;99894.00;5010749;28;20448;-46
2023/07/14 05:55:45;;;;;;;11.93;3.30;;;;;;;15.68;87.20;99873.25;5010361;28;20049;-47
2023/07/14 05:58:12;;;;;;;8.75;2.13;;;;;;;15.69;87.28;99883.25;5008199;28;20150;-46
2023/07/14 06:00:39;;;;;;;7.13;2.55;;;;;;;15.69;87.34;99867.28;5008718;28;20045;-47
2023/07/14 06:03:12;;;;;;;4.30;1.73;;;;;;;15.71;87.73;99855.72;5004748;28;20147;-46
2023/07/14 06:05:40;;;;;;;7.68;2.83;;;;;;;15.73;87.80;99847.75;5014066;28;20050;-45
2023/07/14 06:08:07;;;;;;;7.63;2.95;;;;;;;15.72;87.90;99857.31;5010944;28;20049;-46
2023/07/14 06:10:34;;;;;;;8.02;2.60;;;;;;;15.70;87.94;99857.72;5012936;28;20071;-46
2023/07/14 06:13:03;;;;;;;9.27;2.20;;;;;;;15.67;88.01;99849.38;5017919;28;20128;-45
2023/07/14 06:15:30;;;;;;;4.18;2.13;;;;;;;15.61;88.33;99850.97;5018410;28;20045;-45
2023/07/14 06:17:57;;;;;;;5.10;1.40;;;;;;;15.59;88.52;99845.00;4998669;28;20054;-45
2023/07/14 06:20:24;;;;;;;6.93;1.77;;;;;;;15.55;88.77;99844.19;5011567;28;20088;-45
2023/07/14 06:22:51;;;;;;;5.35;1.60;;;;;;;15.51;88.90;99848.97;5011621;28;20408;-44
2023/07/14 06:25:18;;;;;;;5.88;2.25;;;;;;;15.48;89.11;99844.19;5011529;28;20042;-44
2023/07/14 06:27:45;;;;;;;10.10;1.83;;;;;;;15.43;89.37;99839.00;5010464;28;20050;-45
2023/07/14 06:30:13;;;;;;;5.70;1.70;;;;;;;15.38;89.50;99829.00;5011358;28;20049;-46
2023/07/14 06:32:40;;;;;;;7.15;2.08;;;;;;;15.38;89.50;99836.59;5011501;28;20049;-44
2023/07/14 06:35:08;;;;;;;8.57;2.33;;;;;;;15.39;89.63;99838.19;5008825;28;20129;-45
2023/07/14 06:37:34;;;;;;;5.25;1.80;;;;;;;15.38;89.91;99826.22;5009651;28;20088;-44
2023/07/14 06:40:03;;;;;;;4.75;1.67;;;;;;;15.39;90.11;99832.59;5011356;28;20455;-45
2023/07/14 06:42:31;;;;;;;7.10;1.63;;;;;;;15.39;89.93;99819.47;5011241;28;20045;-44
2023/07/14 06:44:58;;;;;;;6.78;1.73;;;;;;;15.37;90.15;99821.06;5011434;28;20104;-45
2023/07/14 06:47:24;;;;;;;6.93;1.42;;;;;;;15.33;90.29;99806.34;5011687;28;20448;-46
2023/07/14 06:49:52;;;;;;;5.45;1.70;;;;;;;15.30;90.69;99815.50;5011048;28;20169;-45
2023/07/14 06:52:19;;;;;;;4.72;1.40;;;;;;;15.29;90.57;99802.75;5011393;28;20076;-44
2023/07/14 06:54:46;;;;;;;4.55;1.20;;;;;;;15.24;90.50;99810.31;5010909;28;20104;-46
2023/07/14 06:57:13;;;;;;;6.90;1.73;;;;;;;15.21;90.64;99804.75;5010541;28;20137;-46
2023/07/14 06:59:41;;;;;;;7.00;2.17;;;;;;;15.18;90.85;99802.75;4993892;28;20092;-46
2023/07/14 07:02:12;;;;;;;4.20;1.27;;;;;;;15.14;90.79;99797.16;5008006;28;20820;-46
2023/07/14 07:04:39;;;;;;;2.50;1.17;;;;;;;15.15;90.67;99795.97;5009484;28;20038;-46
2023/07/14 07:07:06;;;;;;;4.32;1.20;;;;;;;15.17;90.82;99801.13;5007252;28;20302;-46
2023/07/14 07:09:33;;;;;;;7.22;1.23;;;;;;;15.19;90.72;99791.22;5009807;28;20049;-46
2023/07/14 07:12:00;;;;;;;7.85;1.38;;;;;;;15.19;90.73;99782.84;5007371;28;20088;-45
2023/07/14 07:14:27;;;;;;;1.63;0.90;;;;;;;15.21;90.71;99774.06;5010311;28;20322;-46
2023/07/14 07:16:54;;;;;;;8.40;1.30;;;;;;;15.21;90.48;99772.06;5007627;28;20037;-47
2023/07/14 07:19:21;;;;;;;1.55;1.30;;;;;;;15.19;90.48;99768.91;4994126;28;20061;-47
2023/07/14 07:21:48;;;;;;;3.60;0.90;;;;;;;15.20;90.50;99762.13;5013628;28;20042;-50
2023/07/14 07:24:14;;;;;;;2.28;0.93;;;;;;;15.19;90.46;99766.13;5010184;28;20486;-46
2023/07/14 07:26:42;;;;;;;6.68;1.60;;;;;;;15.16;90.61;99761.34;5012085;28;20049;-46
2023/07/14 07:29:09;;;;;;;5.13;1.02;;;;;;;15.15;90.56;99747.78;5011161;28;20049;-51
2023/07/14 07:31:36;;;;;;;4.10;1.75;;;;;;;15.14;90.66;99751.78;5012289;28;20044;-47
2023/07/14 07:34:03;;;;;;;3.30;1.80;;;;;;;15.17;90.90;99740.59;5012216;28;20053;-45
2023/07/14 07:36:31;;;;;;;6.25;1.55;;;;;;;15.19;90.81;99743.81;5013753;28;20077;-45
2023/07/14 07:38:58;;;;;;;9.15;1.85;;;;;;;15.20;91.20;99739.00;5011198;28;20046;-46
2023/07/14 07:41:25;;;;;;;10.30;1.80;;;;;;;15.15;91.27;99726.28;5011094;28;20104;-46
2023/07/14 07:43:53;;;;;;;9.23;2.53;;;;;;;15.08;91.40;99731.06;5011963;28;20038;-46
2023/07/14 07:46:21;;;;;;;7.38;2.00;;;;;;;15.01;91.62;99723.50;5013164;28;20069;-46
2023/07/14 07:48:49;;;;;;;8.02;1.98;;;;;;;14.96;92.15;99712.75;5012705;28;20056;-46
2023/07/14 07:51:16;;;;;;;8.23;2.15;;;;;;;14.93;92.24;99713.53;5014250;28;20038;-46
2023/07/14 07:53:43;;;;;;;9.98;1.77;;;;;;;14.91;92.47;99710.38;4992418;28;20042;-46
2023/07/14 07:56:10;;;;;;;7.80;2.10;;;;;;;14.87;92.85;99704.00;5014128;28;20526;-48
2023/07/14 07:58:39;;;;;;;8.48;2.00;;;;;;;14.82;93.04;99695.25;5013418;28;20057;-48
2023/07/14 08:01:15;;;;;;;6.18;1.63;;;;;;;14.80;93.57;99689.28;5013825;28;20048;-48
2023/07/14 08:03:42;;;;;;;11.07;2.15;;;;;;;14.81;93.46;99686.09;5012119;28;20050;-49
2023/07/14 08:06:09;;;;;;;6.85;1.92;;;;;;;14.81;93.91;99691.66;5012361;28;20886;-46
2023/07/14 08:08:37;;;;;;;11.02;1.90;;;;;;;14.79;94.03;99684.91;5012671;28;20428;-46
2023/07/14 08:11:08;;;;;;;10.95;2.42;;;;;;;14.79;94.23;99680.13;5012046;28;20053;-47
2023/07/14 08:13:36;;;;;;;7.68;2.13;;;;;;;14.80;94.29;99689.28;5023650;28;20042;-44
2023/07/14 08:16:02;;;;;;;9.32;2.17;;;;;;;14.82;94.35;99679.34;5014785;28;20045;-45
2023/07/14 08:18:30;;;;;;;5.43;1.75;;;;;;;14.84;94.43;99665.78;5011991;28;20077;-49
2023/07/14 08:20:58;;;;;;;6.90;2.95;;;;;;;14.86;94.92;99668.97;5010072;28;20104;-44
2023/07/14 08:23:25;;;;;;;12.50;2.22;;;;;;;14.85;94.80;99655.44;5012147;28;20049;-44
2023/07/14 08:25:57;;;;;;;5.00;2.13;;;;;;;14.85;94.89;99650.66;5011849;28;20389;-46
2023/07/14 08:28:25;;;;;;;7.47;2.03;;;;;;;14.85;95.06;99645.06;5011201;28;20049;-45
2023/07/14 08:30:55;;;;;;;6.13;1.65;;;;;;;14.86;95.45;99640.31;5011685;28;20539;-45
2023/07/14 08:33:24;;;;;;;6.50;1.65;;;;;;;14.84;95.42;99631.56;5005533;28;20049;-45
2023/07/14 08:35:53;;;;;;;4.68;1.98;;;;;;;14.86;95.63;99624.38;5009515;28;20073;-46
2023/07/14 08:38:21;;;;;;;6.35;1.98;;;;;;;14.85;95.63;99617.22;5012498;28;20128;-45
2023/07/14 08:40:52;;;;;;;5.32;2.00;;;;;;;14.88;95.61;99610.84;5010676;28;20541;-45
2023/07/14 08:43:48;;;;;;;11.88;2.13;;;;;;;14.89;95.90;99600.50;5012429;28;20053;-44
2023/07/14 08:46:18;;;;;;;8.13;2.28;;;;;;;14.89;95.90;99590.16;4971818;28;20061;-50
2023/07/14 08:48:52;;;;;;;5.07;1.88;;;;;;;14.88;96.07;99582.19;4977402;28;20037;-45
2023/07/14 08:51:46;;;;;;;7.07;2.05;;;;;;;14.84;96.28;99584.97;4975157;28;20148;-48
2023/07/14 08:54:20;;;;;;;6.55;2.08;;;;;;;14.80;96.51;99567.47;4977290;28;20053;-49
2023/07/14 08:56:48;;;;;;;6.13;1.45;;;;;;;14.78;96.65;99572.66;4975503;28;20057;-47
2023/07/14 08:59:46;;;;;;;5.45;1.40;;;;;;;14.73;97.28;99556.34;4977187;28;20050;-48
2023/07/14 09:02:37;;;;;;;7.95;1.83;;;;;;;14.71;97.08;99550.38;4955606;28;20053;-49
2023/07/14 09:05:26;;;;;;;12.98;2.50;;;;;;;14.66;97.41;99550.81;4976797;28;20057;-48
2023/07/14 09:07:55;;;;;;;6.50;1.95;;;;;;;14.65;97.41;99543.63;4976329;28;20693;-45
2023/07/14 09:10:39;;;;;;;6.53;1.70;;;;;;;14.60;97.93;99538.47;4976096;28;20049;-49
2023/07/14 09:13:10;;;;;;;6.03;2.42;;;;;;;14.55;98.37;99519.38;4975130;28;20049;-47
2023/07/14 09:15:37;;;;;;;17.17;4.07;;;;;;;14.53;98.29;99521.78;4977056;28;20054;-46
2023/07/14 09:18:27;;;;;;;17.63;3.50;;;;;;;14.50;98.88;99517.81;4975106;28;20056;-47
2023/07/14 09:21:20;;;;;;;11.95;2.40;;;;;;;14.45;99.20;99509.06;4958645;28;20146;-45
2023/07/14 09:24:01;;;;;;;10.48;2.88;;;;;;;14.44;99.19;99504.69;4976530;28;20060;-49
2023/07/14 09:26:37;;;;;;;16.48;3.08;;;;;;;14.42;99.62;99493.16;4975999;28;20054;-47
2023/07/14 09:29:18;;;;;;;12.57;3.30;;;;;;;14.41;99.68;99474.84;4976605;28;20045;-47
2023/07/14 09:31:48;;;;;;;10.27;3.00;;;;;;;14.40;99.79;99473.28;4953105;28;20049;-47
2023/07/14 09:34:24;;;;;;;10.82;2.67;;;;;;;14.40;100.00;99467.72;4951736;28;20056;-46
2023/07/14 09:36:53;;;;;;;8.73;2.58;;;;;;;14.39;100.00;99452.19;4975388;28;20175;-46
2023/07/14 09:39:42;;;;;;;11.45;2.55;;;;;;;14.39;100.00;99449.41;4976114;28;20046;-48
2023/07/14 09:42:34;;;;;;;12.50;3.53;;;;;;;14.38;100.00;99448.59;4976095;28;20045;-47
2023/07/14 09:45:23;;;;;;;6.07;2.20;;;;;;;14.36;100.00;99433.50;4976318;28;20866;-47
2023/07/14 09:47:59;;;;;;;16.98;2.58;;;;;;;14.32;100.00;99425.16;4974675;28;20049;-47
2023/07/14 09:50:28;;;;;;;13.00;3.33;;;;;;;14.32;100.00;99429.94;4976995;28;20054;-49
2023/07/14 09:53:02;;;;;;;13.88;3.30;;;;;;;14.33;100.00;99428.72;4962125;28;20184;-46
2023/07/14 09:55:46;;;;;;;10.15;2.70;;;;;;;14.34;100.00;99419.19;4976557;28;20811;-47
2023/07/14 09:58:16;;;;;;;8.73;2.60;;;;;;;14.35;100.00;99415.22;4974967;28;20096;-48
2023/07/14 10:00:49;;;;;;;13.63;4.72;;;;;;;14.33;100.00;99404.47;4974932;28;20054;-49
2023/07/14 10:03:19;;;;;;;13.85;3.47;;;;;;;14.38;100.00;99394.91;4976205;28;20049;-46
2023/07/14 10:06:11;;;;;;;15.15;3.88;;;;;;;14.40;100.00;99384.19;4966482;28;20533;-50
2023/07/14 10:08:50;;;;;;;10.20;4.85;;;;;;;14.38;100.00;99379.00;4975482;28;20046;-47
2023/07/14 10:11:17;;;;;;;14.32;4.30;;;;;;;14.36;100.00;99350.78;4992235;28;20053;-44
2023/07/14 10:14:05;;;;;;;18.92;4.82;;;;;;;14.38;100.00;99351.16;5007749;28;20423;-45
2023/07/14 10:16:42;;;;;;;11.35;4.85;;;;;;;14.37;100.00;99341.22;4979314;28;20053;-44
2023/07/14 10:19:18;;;;;;;14.27;4.75;;;;;;;14.40;100.00;99339.63;5009411;28;20048;-44
2023/07/14 10:21:58;;;;;;;15.15;5.55;;;;;;;14.39;100.00;99332.47;5009672;28;20145;-45
2023/07/14 10:24:27;;;;;;;16.95;6.18;;;;;;;14.40;100.00;99336.84;5011753;28;20042;-44
2023/07/14 10:26:57;;;;;;;21.05;6.45;;;;;;;14.39;100.00;99321.31;5011999;28;20504;-46
2023/07/14 10:29:26;;;;;;;12.52;4.20;;;;;;;14.38;100.00;99322.50;5010912;28;20050;-44
2023/07/14 10:31:56;;;;;;;17.50;4.40;;;;;;;14.36;100.00;99311.78;4991797;28;20092;-44
2023/07/14 10:34:28;;;;;;;12.18;4.03;;;;;;;14.37;100.00;99301.44;5008698;28;20109;-45
2023/07/14 10:37:00;;;;;;;10.80;4.22;;;;;;;14.37;100.00;99295.88;5008451;28;20104;-49
2023/07/14 10:39:36;;;;;;;16.15;4.38;;;;;;;14.38;100.00;99303.81;4976049;28;21651;-49
2023/07/14 10:42:15;;;;;;;17.02;3.58;;;;;;;14.34;100.00;99280.78;5003444;28;20046;-45
2023/07/14 10:44:44;;;;;;;14.68;3.85;;;;;;;14.34;100.00;99286.34;5000165;28;20135;-48
2023/07/14 10:47:19;;;;;;;13.25;4.85;;;;;;;14.33;100.00;99273.63;4988777;28;20048;-45
2023/07/14 10:49:58;;;;;;;13.70;4.25;;;;;;;14.33;100.00;99273.63;4973825;28;20779;-46
2023/07/14 10:52:33;;;;;;;12.93;4.00;;;;;;;14.33;100.00;99265.25;4973742;28;20077;-49
2023/07/14 10:55:23;;;;;;;13.00;3.97;;;;;;;14.33;100.00;99261.69;4975539;28;20068;-49
2023/07/14 10:58:04;;;;;;;20.55;4.05;;;;;;;14.34;100.00;99247.38;4975068;28;21777;-45
2023/07/14 11:00:41;;;;;;;20.60;4.47;;;;;;;14.36;100.00;99255.31;4975102;28;20050;-45
2023/07/14 11:03:13;;;;;;;20.38;3.95;;;;;;;14.41;100.00;99243.75;4971321;28;20065;-46
2023/07/14 11:05:45;;;;;;;14.38;3.80;;;;;;;14.40;100.00;99231.81;4969918;28;20066;-48
2023/07/14 11:08:12;;;;;;;14.25;3.67;;;;;;;14.40;100.00;99222.69;4971208;28;20042;-47
2023/07/14 11:11:03;;;;;;;17.35;3.97;;;;;;;14.39;100.00;99221.09;4972983;28;21546;-47
2023/07/14 11:13:48;;;;;;;15.00;3.85;;;;;;;14.42;100.00;99203.56;4983578;28;20058;-44
2023/07/14 11:16:35;;;;;;;16.85;4.00;;;;;;;14.41;100.00;99196.41;5009714;28;20097;-43
2023/07/14 11:19:10;;;;;;;12.20;4.47;;;;;;;14.43;100.00;99188.44;5009912;28;20046;-44
2023/07/14 11:21:46;;;;;;;11.15;2.95;;;;;;;14.44;100.00;99187.22;5008514;28;20065;-46
2023/07/14 11:24:17;;;;;;;8.95;3.67;;;;;;;14.45;100.00;99172.13;4999554;28;20049;-48
2023/07/14 11:26:52;;;;;;;10.27;3.67;;;;;;;14.44;100.00;99165.75;4959745;28;20042;-48
2023/07/14 11:29:21;;;;;;;9.63;3.25;;;;;;;14.45;100.00;99147.06;4961836;28;20966;-47
2023/07/14 11:31:53;;;;;;;11.85;3.15;;;;;;;14.43;100.00;99130.75;4996160;28;20574;-44
2023/07/14 11:34:39;;;;;;;10.68;4.35;;;;;;;14.45;100.00;99142.28;5009315;28;20042;-44
2023/07/14 11:37:24;;;;;;;15.45;4.40;;;;;;;14.43;100.00;99132.75;5010110;28;20041;-45
2023/07/14 11:39:56;;;;;;;16.00;3.35;;;;;;;14.42;100.00;99123.63;5008464;28;20048;-45
2023/07/14 11:42:27;;;;;;;11.00;2.97;;;;;;;14.43;100.00;99116.81;4978883;28;20048;-46
2023/07/14 11:44:56;;;;;;;12.73;3.20;;;;;;;14.41;100.00;99104.53;4946722;28;20403;-48